Ana Sayfa
METAR-TAF:

METAR-TAF

Havaalanları :

Laconia Municipal Airport

Laconia, New Hampshire, Amerika Birleşik Devletleri

Enlem: 43-34N, Boylam: 071-25W, yükseklik: 166 m

Güncel hava durumu gözlemi

Rapor saat 15:56 UTC de 56 dakika önce yapıldı.
Rüzgar batıdan 6 kt
Sıcaklık 9°C
Nem 66%
Basınç 1017 hPa
Görüş mesafesi: 16.1 km
4500 ft yükseklikte parçalı çok bulutlu

METAR: KLCI 051556Z AUTO 26006KT 10SM BKN045 09/03 A3002 RMK AO2 SLP169 T00940033

Saat: 12:52 (16:52 UTC)


TAF: eksik

4.000'den fazla havaalanı için hava durumu gözlemleri ve tahminleri (METAR ve TAF raporları).

Kullanılabilir istasyonlar harita üzerinde sarı ve kırmızı noktalarla gösterilir.

İstasyonun adını görmek için fareyi noktanın üzerinde gezdirin.

Sonrasında hava gözlem ve tahminlerini görmek için tıklayın.

Haritayı değiştirmek için: yaklaştırmak için siyah artı işaretli yeşil düğmeye ve uzaklaştırmak için de eksi işaretli düğmeye hızla tıklayın; bitişik haritalar için yeşil okları kullanın.


METAR-TAF: